Time;durP1;ratioP1;P1;durP2;ratioP2;P2;SDS_P1;SDS_P2;PMS_P1;PMS_P2;Temp;Humidity;BMP_temperature;BMP_pressure;BME280_temperature;BME280_humidity;BME280_pressure;Samples;Min_cycle;Max_cycle;Signal;HPM_P1;HPM_P2
2022/11/09 00:01:33;;;;;;;;;;;;;;;-143.57;100.00;51163.84;5081157;28;19932;-76
2022/11/09 00:04:00;;;;;;;;;;;;;;;-143.57;100.00;51207.56;5079520;28;20598;-73
2022/11/09 00:06:28;;;;;;;;;;;;;;;-143.57;100.00;51203.59;5082696;28;19924;-76
2022/11/09 00:08:54;;;;;;;;;;;;;;;-143.57;100.00;51199.63;5096844;27;19932;-75
2022/11/09 00:11:21;;;;;;;;;;;;;;;-143.57;100.00;51211.53;5082388;28;19924;-74
2022/11/09 00:13:48;;;;;;;;;;;;;;;-143.57;100.00;51187.69;5085826;28;19935;-74
2022/11/09 00:16:16;;;;;;;;;;;;;;;-143.57;100.00;51231.41;5081882;28;19928;-74
2022/11/09 00:18:46;;;;;;;;;;;;;;;-143.57;100.00;51239.38;5082617;28;20005;-74
2022/11/09 00:21:14;;;;;;;;;;;;;;;-143.57;100.00;51199.63;5083969;28;21405;-75
2022/11/09 00:23:41;;;;;;;;;;;;;;;-143.57;100.00;51211.53;5089124;28;20644;-75
2022/11/09 00:26:08;;;;;;;;;;;;;;;-143.57;100.00;51223.47;5081225;28;20405;-74
2022/11/09 00:28:36;;;;;;;;;;;;;;;-143.57;100.00;51175.75;5085714;28;20407;-74
2022/11/09 00:31:06;;;;;;;;;;;;;;;-143.57;100.00;51177.75;5081636;28;19928;-74
2022/11/09 00:33:33;;;;;;;;;;;;;;;-143.57;100.00;51211.53;5065683;28;20026;-74
2022/11/09 00:36:09;;;;;;;;;;;;;;;-143.57;100.00;51235.41;5066525;28;20024;-75
2022/11/09 00:38:37;;;;;;;;;;;;;;;-143.57;100.00;51217.50;5082497;28;20287;-75
2022/11/09 00:41:04;;;;;;;;;;;;;;;-143.57;100.00;51209.56;5083156;28;19928;-74
2022/11/09 00:43:31;;;;;;;;;;;;;;;-143.57;100.00;51259.25;5064407;28;19924;-74
2022/11/09 00:45:58;;;;;;;;;;;;;;;-143.57;100.00;51207.56;5065538;28;19931;-75
2022/11/09 00:48:25;;;;;;;;;;;;;;;-143.57;100.00;51223.47;5087265;28;20400;-74
2022/11/09 00:50:53;;;;;;;;;;;;;;;-143.57;100.00;51247.31;5083872;28;20167;-75
2022/11/09 00:53:21;;;;;;;;;;;;;;;-143.57;100.00;51183.72;5064693;28;19935;-74
2022/11/09 00:55:54;;;;;;;;;;;;;;;-143.57;100.00;51237.38;5066589;28;19936;-74
2022/11/09 00:58:21;;;;;;;;;;;;;;;-143.57;100.00;51231.41;5064246;28;20109;-74
2022/11/09 01:00:49;;;;;;;;;;;;;;;-143.57;100.00;51195.63;5065284;28;19928;-74
2022/11/09 01:03:15;;;;;;;;;;;;;;;-143.57;100.00;51227.44;5061669;28;19928;-74
2022/11/09 01:05:43;;;;;;;;;;;;;;;-143.57;100.00;51223.47;5062567;28;19928;-75
2022/11/09 01:08:09;;;;;;;;;;;;;;;-143.57;100.00;51195.63;5063137;28;19932;-75
2022/11/09 01:10:46;;;;;;;;;;;;;;;-143.57;100.00;51227.44;5061201;28;19928;-75
2022/11/09 01:13:14;;;;;;;;;;;;;;;-143.57;100.00;51207.56;5083246;28;19924;-74
2022/11/09 01:15:44;;;;;;;;;;;;;;;-143.57;100.00;51175.75;5060987;28;20022;-75
2022/11/09 01:18:11;;;;;;;;;;;;;;;-143.57;100.00;51221.47;5070639;28;19955;-75
2022/11/09 01:20:39;;;;;;;;;;;;;;;-143.57;100.00;51211.53;5077392;28;19981;-75
2022/11/09 01:23:06;;;;;;;;;;;;;;;-143.57;100.00;51203.59;5063031;28;20671;-74
2022/11/09 01:25:33;;;;;;;;;;;;;;;-143.57;100.00;51215.53;5078339;28;19928;-74
2022/11/09 01:27:59;;;;;;;;;;;;;;;-143.57;100.00;51239.38;5082543;28;19927;-74
2022/11/09 01:30:26;;;;;;;;;;;;;;;-143.57;100.00;51187.69;5087078;27;20023;-74
2022/11/09 01:32:53;;;;;;;;;;;;;;;-143.57;100.00;51215.53;5081441;28;20672;-74
2022/11/09 01:35:20;;;;;;;;;;;;;;;-143.57;100.00;51199.63;5080170;28;19932;-74
2022/11/09 01:37:47;;;;;;;;;;;;;;;-143.57;100.00;51227.44;5092477;27;19935;-74
2022/11/09 01:40:14;;;;;;;;;;;;;;;-143.57;100.00;51215.53;5061597;28;19920;-74
2022/11/09 01:42:40;;;;;;;;;;;;;;;-143.57;100.00;51195.63;5062421;28;19993;-74
2022/11/09 01:45:16;;;;;;;;;;;;;;;-143.57;100.00;51211.53;5081862;28;19928;-74
2022/11/09 01:47:48;;;;;;;;;;;;;;;-143.57;100.00;51215.53;5077873;28;19969;-74
2022/11/09 01:50:16;;;;;;;;;;;;;;;-143.57;100.00;51223.47;5063032;28;19939;-74
2022/11/09 01:52:46;;;;;;;;;;;;;;;-143.57;100.00;51219.50;5061620;28;20729;-74
2022/11/09 01:55:15;;;;;;;;;;;;;;;-143.57;100.00;51201.59;5085066;28;20026;-74
2022/11/09 01:57:44;;;;;;;;;;;;;;;-143.57;100.00;51195.63;5091874;28;19928;-74
2022/11/09 02:00:13;;;;;;;;;;;;;;;-143.57;100.00;51203.59;5082079;28;19924;-74
2022/11/09 02:02:43;;;;;;;;;;;;;;;-143.57;100.00;51185.69;5060013;28;19924;-74
2022/11/09 02:05:13;;;;;;;;;;;;;;;-143.57;100.00;51219.50;5064496;28;19924;-75
2022/11/09 02:07:41;;;;;;;;;;;;;;;-143.57;100.00;51193.66;5058745;28;19932;-74
2022/11/09 02:10:11;;;;;;;;;;;;;;;-143.57;100.00;51207.56;5063172;28;19971;-74
2022/11/09 02:12:38;;;;;;;;;;;;;;;-143.57;100.00;51187.69;5080603;28;19967;-74
2022/11/09 02:15:07;;;;;;;;;;;;;;;-143.57;100.00;51217.50;5062121;28;19928;-74
2022/11/09 02:17:35;;;;;;;;;;;;;;;-143.57;100.00;51207.56;5058723;28;20793;-74
2022/11/09 02:20:05;;;;;;;;;;;;;;;-143.57;100.00;51203.59;5060119;28;19924;-75
2022/11/09 02:22:33;;;;;;;;;;;;;;;-143.57;100.00;51219.50;5061879;28;19934;-75
2022/11/09 02:25:01;;;;;;;;;;;;;;;-143.57;100.00;51211.53;5086450;28;20582;-74
2022/11/09 02:27:27;;;;;;;;;;;;;;;-143.57;100.00;51187.69;5062351;28;19931;-74
2022/11/09 02:29:56;;;;;;;;;;;;;;;-143.57;100.00;51203.59;5078464;28;19977;-74
2022/11/09 02:32:24;;;;;;;;;;;;;;;-143.57;100.00;51183.72;5058831;28;20812;-74
2022/11/09 02:34:54;;;;;;;;;;;;;;;-143.57;100.00;51235.41;5061630;28;20014;-74
2022/11/09 02:37:35;;;;;;;;;;;;;;;-143.57;100.00;51201.59;5080168;28;20381;-74
2022/11/09 02:40:05;;;;;;;;;;;;;;;-143.57;100.00;51247.31;5060341;28;19935;-74
2022/11/09 02:42:32;;;;;;;;;;;;;;;-143.57;100.00;51215.53;5063325;28;19934;-74
2022/11/09 02:44:59;;;;;;;;;;;;;;;-143.57;100.00;51191.66;5086101;28;19936;-74
2022/11/09 02:47:26;;;;;;;;;;;;;;;-143.57;100.00;51215.53;5092736;28;20018;-73
2022/11/09 02:49:52;;;;;;;;;;;;;;;-143.57;100.00;51223.47;5066974;28;20661;-74
2022/11/09 02:52:19;;;;;;;;;;;;;;;-143.57;100.00;51199.63;5083710;28;19932;-73
2022/11/09 02:54:46;;;;;;;;;;;;;;;-143.57;100.00;51207.56;5062003;28;19974;-74
2022/11/09 02:57:13;;;;;;;;;;;;;;;-143.57;100.00;51219.50;5061194;28;19935;-74
2022/11/09 02:59:41;;;;;;;;;;;;;;;-143.57;100.00;51223.47;5064337;28;20689;-74
2022/11/09 03:02:09;;;;;;;;;;;;;;;-143.57;100.00;51211.53;5060663;28;19928;-74
2022/11/09 03:04:38;;;;;;;;;;;;;;;-143.57;100.00;51219.50;5081697;28;20503;-74
2022/11/09 03:07:05;;;;;;;;;;;;;;;-143.57;100.00;51223.47;5061419;28;19928;-74
2022/11/09 03:09:32;;;;;;;;;;;;;;;-143.57;100.00;51231.41;5079131;28;19985;-75
2022/11/09 03:12:27;;;;;;;;;;;;;;;-143.57;100.00;51247.31;5080953;28;19985;-74
2022/11/09 03:14:49;;;;;;;;;;;;;;;-143.57;100.00;51215.53;5067337;28;19928;-74
2022/11/09 03:17:17;;;;;;;;;;;;;;;-143.57;100.00;51251.31;5077718;28;19935;-74
2022/11/09 03:19:44;;;;;;;;;;;;;;;-143.57;100.00;51239.38;5063077;28;20007;-74
2022/11/09 03:22:11;;;;;;;;;;;;;;;-143.57;100.00;51243.34;5074857;28;19924;-74
2022/11/09 03:24:38;;;;;;;;;;;;;;;-143.57;100.00;51241.34;5088404;28;19925;-74
2022/11/09 03:27:05;;;;;;;;;;;;;;;-143.57;100.00;51241.34;5063245;28;19928;-74
2022/11/09 03:29:32;;;;;;;;;;;;;;;-143.57;100.00;51211.53;5080731;28;20428;-74
2022/11/09 03:32:00;;;;;;;;;;;;;;;-143.57;100.00;51239.38;5088885;28;20034;-74
2022/11/09 03:34:27;;;;;;;;;;;;;;;-143.57;100.00;51247.31;5061664;28;20011;-74
2022/11/09 03:36:54;;;;;;;;;;;;;;;-143.57;100.00;51225.47;5081714;28;19935;-74
2022/11/09 03:39:21;;;;;;;;;;;;;;;-143.57;100.00;51219.50;5059930;28;19924;-74
2022/11/09 03:41:48;;;;;;;;;;;;;;;-143.57;100.00;51251.31;5067586;28;19920;-73
2022/11/09 03:44:15;;;;;;;;;;;;;;;-143.57;100.00;51247.31;5059380;28;20609;-73
2022/11/09 03:46:42;;;;;;;;;;;;;;;-143.57;100.00;51207.56;5066272;28;19967;-74
2022/11/09 03:49:09;;;;;;;;;;;;;;;-143.57;100.00;51215.53;5076365;28;19928;-74
2022/11/09 03:51:36;;;;;;;;;;;;;;;-143.57;100.00;51215.53;5082312;28;19981;-74
2022/11/09 03:54:02;;;;;;;;;;;;;;;-143.57;100.00;51223.47;5079602;28;20043;-74
2022/11/09 03:56:29;;;;;;;;;;;;;;;-143.57;100.00;51225.47;5080780;28;20001;-74
2022/11/09 03:58:56;;;;;;;;;;;;;;;-143.57;100.00;51227.44;5064367;28;19928;-74
2022/11/09 04:01:23;;;;;;;;;;;;;;;-143.57;100.00;51199.63;5077503;28;19932;-74
2022/11/09 04:03:49;;;;;;;;;;;;;;;-143.57;100.00;51207.56;5094290;28;19928;-73
2022/11/09 04:06:16;;;;;;;;;;;;;;;-143.57;100.00;51217.50;5059020;28;19928;-74
2022/11/09 04:08:43;;;;;;;;;;;;;;;-143.57;100.00;51247.31;5047412;28;19939;-74
2022/11/09 04:11:18;;;;;;;;;;;;;;;-143.57;100.00;51283.09;5078069;28;19924;-74
2022/11/09 04:13:46;;;;;;;;;;;;;;;-143.57;100.00;51217.50;5083565;28;20019;-74
2022/11/09 04:16:12;;;;;;;;;;;;;;;-143.57;100.00;51201.59;5075650;28;19993;-74
2022/11/09 04:18:39;;;;;;;;;;;;;;;-143.57;100.00;51223.47;5060147;28;20021;-74
2022/11/09 04:21:06;;;;;;;;;;;;;;;-143.57;100.00;51227.44;5077151;28;19928;-73
2022/11/09 04:23:32;;;;;;;;;;;;;;;-143.57;100.00;51203.59;5062349;28;19985;-74
2022/11/09 04:25:59;;;;;;;;;;;;;;;-143.57;100.00;51243.34;5060348;28;19928;-73
2022/11/09 04:28:26;;;;;;;;;;;;;;;-143.57;100.00;51215.53;5078748;28;19958;-74
2022/11/09 04:30:52;;;;;;;;;;;;;;;-143.57;100.00;51217.50;5076810;28;20013;-74
2022/11/09 04:33:19;;;;;;;;;;;;;;;-143.57;100.00;51235.41;5059660;28;19964;-72
2022/11/09 04:35:46;;;;;;;;;;;;;;;-143.57;100.00;51231.41;5063142;28;19924;-75
2022/11/09 04:38:13;;;;;;;;;;;;;;;-143.57;100.00;51239.38;5060104;28;19924;-75
2022/11/09 04:40:40;;;;;;;;;;;;;;;-143.57;100.00;51219.50;5064743;28;19970;-72
2022/11/09 04:43:09;;;;;;;;;;;;;;;-143.57;100.00;51239.38;5062365;28;20012;-73
2022/11/09 04:45:36;;;;;;;;;;;;;;;-143.57;100.00;51199.63;5066995;28;19980;-73
2022/11/09 04:48:04;;;;;;;;;;;;;;;-143.57;100.00;51199.63;5060428;28;20022;-74
2022/11/09 04:50:31;;;;;;;;;;;;;;;-143.57;100.00;51195.63;5084004;28;19927;-73
2022/11/09 04:53:08;;;;;;;;;;;;;;;-143.57;100.00;51191.66;5064189;28;19928;-73
2022/11/09 04:55:35;;;;;;;;;;;;;;;-143.57;100.00;51271.19;5094174;28;19924;-73
2022/11/09 04:58:02;;;;;;;;;;;;;;;-143.57;100.00;51211.53;5058481;28;20553;-73
2022/11/09 05:00:28;;;;;;;;;;;;;;;-143.57;100.00;51201.59;5080379;28;19960;-74
2022/11/09 05:02:58;;;;;;;;;;;;;;;-143.57;100.00;51231.41;5062716;28;20401;-74
2022/11/09 05:05:24;;;;;;;;;;;;;;;-143.57;100.00;51201.59;5061395;28;20727;-74
2022/11/09 05:07:51;;;;;;;;;;;;;;;-143.57;100.00;51215.53;5084475;28;19935;-73
2022/11/09 05:10:18;;;;;;;;;;;;;;;-143.57;100.00;51263.22;5079446;28;20405;-74
2022/11/09 05:12:45;;;;;;;;;;;;;;;-143.57;100.00;51221.47;5082181;28;19935;-74
2022/11/09 05:15:11;;;;;;;;;;;;;;;-143.57;100.00;51235.41;5063396;28;19927;-74
2022/11/09 05:17:38;;;;;;;;;;;;;;;-143.57;100.00;51249.31;5092730;27;19925;-74
2022/11/09 05:20:05;;;;;;;;;;;;;;;-143.57;100.00;51245.34;5079162;28;19981;-73
2022/11/09 05:25:16;;;;;;;;;;;;;;;-143.57;100.00;51219.50;5078225;28;20481;-73
2022/11/09 05:27:43;;;;;;;;;;;;;;;-143.57;100.00;51239.38;5083122;28;19992;-72
2022/11/09 05:30:10;;;;;;;;;;;;;;;-143.57;100.00;51251.31;5081296;28;19947;-72
2022/11/09 05:32:39;;;;;;;;;;;;;;;-143.57;100.00;51243.34;5081225;28;19939;-73
2022/11/09 05:35:08;;;;;;;;;;;;;;;-143.57;100.00;51239.38;5082016;28;19936;-73
2022/11/09 05:37:37;;;;;;;;;;;;;;;-143.57;100.00;51271.19;5058761;28;20003;-73
2022/11/09 05:40:04;;;;;;;;;;;;;;;-143.57;100.00;51239.38;5080770;28;19920;-73
2022/11/09 05:42:30;;;;;;;;;;;;;;;-143.57;100.00;51219.50;5089672;28;20057;-72
2022/11/09 05:44:57;;;;;;;;;;;;;;;-143.57;100.00;51227.44;5086528;28;19927;-72
2022/11/09 05:47:44;;;;;;;;;;;;;;;-143.57;100.00;51223.47;5081911;28;20015;-73
2022/11/09 05:50:12;;;;;;;;;;;;;;;-143.57;100.00;51215.53;5087985;28;19924;-73
2022/11/09 05:52:39;;;;;;;;;;;;;;;-143.57;100.00;51243.34;5086908;28;19934;-73
2022/11/09 05:55:06;;;;;;;;;;;;;;;-143.57;100.00;51191.66;5071566;28;20613;-73
2022/11/09 05:57:33;;;;;;;;;;;;;;;-143.57;100.00;51247.31;5068241;28;19939;-73
2022/11/09 05:59:59;;;;;;;;;;;;;;;-143.57;100.00;51243.34;5085828;28;19974;-73
2022/11/09 06:02:29;;;;;;;;;;;;;;;-143.57;100.00;51213.53;5065563;28;19932;-72
2022/11/09 06:04:55;;;;;;;;;;;;;;;-143.57;100.00;51263.22;5095015;27;20428;-74
2022/11/09 06:07:22;;;;;;;;;;;;;;;-143.57;100.00;51219.50;5081059;28;19928;-74
2022/11/09 06:09:49;;;;;;;;;;;;;;;-143.57;100.00;51235.41;5083001;28;19934;-73
2022/11/09 06:12:16;;;;;;;;;;;;;;;-143.57;100.00;51231.41;5077876;28;19993;-73
2022/11/09 06:14:43;;;;;;;;;;;;;;;-143.57;100.00;51231.41;5064193;28;19985;-73
2022/11/09 06:17:09;;;;;;;;;;;;;;;-143.57;100.00;51285.09;5086109;28;20132;-73
2022/11/09 06:19:36;;;;;;;;;;;;;;;-143.57;100.00;51247.31;5081811;28;20312;-73
2022/11/09 06:22:03;;;;;;;;;;;;;;;-143.57;100.00;51247.31;5085997;28;19989;-73
2022/11/09 06:24:29;;;;;;;;;;;;;;;-143.57;100.00;51235.41;5083985;28;19986;-73
2022/11/09 06:26:56;;;;;;;;;;;;;;;-143.57;100.00;51263.22;5087155;28;19932;-74
2022/11/09 06:29:23;;;;;;;;;;;;;;;-143.57;100.00;51239.38;5086001;28;19935;-74
2022/11/09 06:31:50;;;;;;;;;;;;;;;-143.57;100.00;51275.16;5089106;28;19927;-73
2022/11/09 06:34:16;;;;;;;;;;;;;;;-143.57;100.00;51251.31;5071166;28;19928;-74
2022/11/09 06:36:43;;;;;;;;;;;;;;;-143.57;100.00;51207.56;5093590;28;19928;-73
2022/11/09 06:39:10;;;;;;;;;;;;;;;-143.57;100.00;51219.50;5084669;28;19924;-75
2022/11/09 06:41:36;;;;;;;;;;;;;;;-143.57;100.00;51213.53;5087877;28;19975;-74
2022/11/09 06:44:06;;;;;;;;;;;;;;;-143.57;100.00;51241.34;5091812;28;19990;-74
2022/11/09 06:46:33;;;;;;;;;;;;;;;-143.57;100.00;51245.34;5071723;28;19964;-75
2022/11/09 06:49:00;;;;;;;;;;;;;;;-143.57;100.00;51227.44;5092478;28;19980;-73
2022/11/09 06:51:26;;;;;;;;;;;;;;;-143.57;100.00;51231.41;5087239;28;19920;-75
2022/11/09 06:53:53;;;;;;;;;;;;;;;-143.57;100.00;51251.31;5089511;28;19928;-73
2022/11/09 06:56:20;;;;;;;;;;;;;;;-143.57;100.00;51241.34;5087402;28;19924;-73
2022/11/09 06:58:47;;;;;;;;;;;;;;;-143.57;100.00;51275.16;5070784;28;19987;-74
2022/11/09 07:01:15;;;;;;;;;;;;;;;-143.57;100.00;51239.38;5086309;28;19920;-74
2022/11/09 07:03:42;;;;;;;;;;;;;;;-143.57;100.00;51191.66;5084693;28;20364;-74
2022/11/09 07:06:09;;;;;;;;;;;;;;;-143.57;100.00;51223.47;5085300;28;19935;-74
2022/11/09 07:08:36;;;;;;;;;;;;;;;-143.57;100.00;51243.34;5083438;28;19927;-74
2022/11/09 07:11:08;;;;;;;;;;;;;;;-143.57;100.00;51231.41;5082665;28;20601;-74
2022/11/09 07:13:37;;;;;;;;;;;;;;;-143.57;100.00;51231.41;5087667;28;19946;-74
2022/11/09 07:16:05;;;;;;;;;;;;;;;-143.57;100.00;51271.19;5079292;28;20166;-74
2022/11/09 07:18:32;;;;;;;;;;;;;;;-143.57;100.00;51233.41;5079917;28;19936;-74
2022/11/09 07:20:58;;;;;;;;;;;;;;;-143.57;100.00;51201.59;5063215;28;19987;-72
2022/11/09 07:23:27;;;;;;;;;;;;;;;-143.57;100.00;51223.47;5064373;28;20324;-73
2022/11/09 07:25:53;;;;;;;;;;;;;;;-143.57;100.00;51203.59;5080682;28;19928;-72
2022/11/09 07:28:20;;;;;;;;;;;;;;;-143.57;100.00;51239.38;5078763;28;19924;-71
2022/11/09 07:30:50;;;;;;;;;;;;;;;-143.57;100.00;51267.19;5081778;28;20031;-70
2022/11/09 07:33:17;;;;;;;;;;;;;;;-143.57;100.00;51233.41;5076096;28;19935;-70
2022/11/09 07:35:45;;;;;;;;;;;;;;;-143.57;100.00;51239.38;5081492;28;20581;-74
2022/11/09 07:38:12;;;;;;;;;;;;;;;-143.57;100.00;51263.22;5075906;28;20037;-73
2022/11/09 07:40:39;;;;;;;;;;;;;;;-143.57;100.00;51235.41;5080858;28;19928;-72
2022/11/09 07:43:06;;;;;;;;;;;;;;;-143.57;100.00;51219.50;5077493;28;19931;-74
2022/11/09 07:45:36;;;;;;;;;;;;;;;-143.57;100.00;51247.31;5093146;28;19924;-71
2022/11/09 07:48:04;;;;;;;;;;;;;;;-143.57;100.00;51223.47;5081443;28;19928;-73
2022/11/09 07:50:31;;;;;;;;;;;;;;;-143.57;100.00;51259.25;5060006;28;19920;-74
2022/11/09 07:52:59;;;;;;;;;;;;;;;-143.57;100.00;51229.44;5062552;28;20677;-74
2022/11/09 07:55:26;;;;;;;;;;;;;;;-143.57;100.00;51227.44;5076997;28;19928;-74
2022/11/09 07:57:54;;;;;;;;;;;;;;;-143.57;100.00;51227.44;5061504;28;19930;-74
2022/11/09 08:00:21;;;;;;;;;;;;;;;-143.57;100.00;51231.41;5080321;28;19985;-72
2022/11/09 08:02:49;;;;;;;;;;;;;;;-143.57;100.00;51227.44;5085471;28;20691;-75
2022/11/09 08:05:16;;;;;;;;;;;;;;;-143.57;100.00;51223.47;5065891;28;20013;-77
2022/11/09 08:07:42;;;;;;;;;;;;;;;-143.57;100.00;51227.44;5059783;28;19928;-73
2022/11/09 08:10:09;;;;;;;;;;;;;;;-143.57;100.00;51227.44;5067737;28;19939;-73
2022/11/09 08:12:36;;;;;;;;;;;;;;;-143.57;100.00;51243.34;5083315;28;20015;-73
2022/11/09 08:15:03;;;;;;;;;;;;;;;-143.57;100.00;51267.19;5086517;28;19928;-72
2022/11/09 08:17:30;;;;;;;;;;;;;;;-143.57;100.00;51247.31;5064595;28;19951;-71
2022/11/09 08:19:57;;;;;;;;;;;;;;;-143.57;100.00;51215.53;5066832;28;19931;-73
2022/11/09 08:22:24;;;;;;;;;;;;;;;-143.57;100.00;51219.50;5080736;28;19928;-72
2022/11/09 08:24:50;;;;;;;;;;;;;;;-143.57;100.00;51223.47;5096099;27;19935;-73
2022/11/09 08:27:17;;;;;;;;;;;;;;;-143.57;100.00;51239.38;5080005;28;20528;-71
2022/11/09 08:29:44;;;;;;;;;;;;;;;-143.57;100.00;51225.47;5068847;28;19928;-71
2022/11/09 08:32:11;;;;;;;;;;;;;;;-143.57;100.00;51225.47;5065056;28;19974;-71
2022/11/09 08:34:37;;;;;;;;;;;;;;;-143.57;100.00;51219.50;5081943;28;19925;-71
2022/11/09 08:37:04;;;;;;;;;;;;;;;-143.57;100.00;51219.50;5059886;28;20736;-70
2022/11/09 08:39:31;;;;;;;;;;;;;;;-143.57;100.00;51243.34;5074572;28;19935;-71
2022/11/09 08:41:57;;;;;;;;;;;;;;;-143.57;100.00;51235.41;5079085;28;20001;-71
2022/11/09 08:44:24;;;;;;;;;;;;;;;-143.57;100.00;51227.44;5084125;28;19964;-72
2022/11/09 08:46:51;;;;;;;;;;;;;;;-143.57;100.00;51239.38;5078977;28;20024;-70
2022/11/09 08:49:17;;;;;;;;;;;;;;;-143.57;100.00;51239.38;5077874;28;20656;-71
2022/11/09 08:51:44;;;;;;;;;;;;;;;-143.57;100.00;51207.56;5082391;28;19935;-71
2022/11/09 08:54:12;;;;;;;;;;;;;;;-143.57;100.00;51231.41;5089736;27;19931;-70
2022/11/09 08:56:39;;;;;;;;;;;;;;;-143.57;100.00;51265.22;5064016;28;19924;-72
2022/11/09 08:59:06;;;;;;;;;;;;;;;-143.57;100.00;51257.25;5061061;28;20009;-71
2022/11/09 09:01:33;;;;;;;;;;;;;;;-143.57;100.00;51213.53;5081784;28;20621;-71
2022/11/09 09:03:59;;;;;;;;;;;;;;;-143.57;100.00;51211.53;5060690;28;19931;-71
2022/11/09 09:06:26;;;;;;;;;;;;;;;-143.57;100.00;51227.44;5081954;28;19986;-71
2022/11/09 09:08:56;;;;;;;;;;;;;;;-143.57;100.00;51223.47;5059944;28;19924;-71
2022/11/09 09:11:23;;;;;;;;;;;;;;;-143.57;100.00;51211.53;5081265;28;19970;-71
2022/11/09 09:13:49;;;;;;;;;;;;;;;-143.57;100.00;51225.47;5079070;28;19989;-71
2022/11/09 09:16:16;;;;;;;;;;;;;;;-143.57;100.00;51235.41;5081044;28;19928;-71
2022/11/09 09:18:43;;;;;;;;;;;;;;;-143.57;100.00;51217.50;5082484;28;20055;-71
2022/11/09 09:21:09;;;;;;;;;;;;;;;-143.57;100.00;51195.63;5085182;27;19932;-72
2022/11/09 09:23:36;;;;;;;;;;;;;;;-143.57;100.00;51181.72;5082253;28;19936;-71
2022/11/09 09:26:03;;;;;;;;;;;;;;;-143.57;100.00;51199.63;5076098;28;19931;-71
2022/11/09 09:28:29;;;;;;;;;;;;;;;-143.57;100.00;51213.53;5082868;28;20383;-71
2022/11/09 09:30:58;;;;;;;;;;;;;;;-143.57;100.00;51235.41;5045020;28;19924;-71
2022/11/09 09:33:25;;;;;;;;;;;;;;;-143.57;100.00;51193.66;5082402;28;19928;-71
2022/11/09 09:35:56;;;;;;;;;;;;;;;-143.57;100.00;51215.53;5080564;28;19928;-71
2022/11/09 09:38:23;;;;;;;;;;;;;;;-143.57;100.00;51227.44;5081959;28;19992;-71
2022/11/09 09:40:58;;;;;;;;;;;;;;;-143.57;100.00;51201.59;5080417;28;20022;-71
2022/11/09 09:43:29;;;;;;;;;;;;;;;-143.57;97.82;51231.41;5060372;28;19935;-71
2022/11/09 09:45:58;;;;;;;;;;;;;;;-143.57;98.87;51225.47;5082381;28;19938;-71
2022/11/09 09:48:32;;;;;;;;;;;;;;;-143.57;97.42;51193.66;5089694;28;19928;-72
2022/11/09 09:51:02;;;;;;;;;;;;;;;-143.57;95.69;51219.50;5087288;28;19924;-71
2022/11/09 09:53:36;;;;;;;;;;;;;;;-143.57;95.90;51235.41;5082337;28;20636;-71
2022/11/09 09:56:05;;;;;;;;;;;;;;;-143.57;94.02;51223.47;5094560;27;20020;-71
2022/11/09 09:58:33;;;;;;;;;;;;;;;-143.57;94.90;51239.38;5079921;28;19932;-71
2022/11/09 10:01:05;;;;;;;;;;;;;;;-143.57;94.83;51235.41;5086660;28;19994;-71
2022/11/09 10:03:32;;;;;;;;;;;;;;;-143.57;95.91;51185.69;5084865;28;19981;-71
2022/11/09 10:06:02;;;;;;;;;;;;;;;-143.57;95.31;51239.38;5080459;28;19959;-71
2022/11/09 10:09:01;;;;;;;;;;;;;;;-143.57;95.54;51199.63;5060156;28;20389;-71
2022/11/09 10:11:35;;;;;;;;;;;;;;;-143.57;92.66;51213.53;5054968;28;20076;-72
2022/11/09 10:14:02;;;;;;;;;;;;;;;-143.57;92.07;51207.56;5066051;28;19924;-72
2022/11/09 10:16:31;;;;;;;;;;;;;;;-143.57;62.31;51223.47;5087286;28;20284;-71
2022/11/09 10:19:00;;;;;;;;;;;;;;;-143.57;63.51;51243.34;5076703;28;20020;-71
2022/11/09 10:21:38;;;;;;;;;;;;;;;-143.57;63.25;51215.53;5080195;28;19959;-72
2022/11/09 10:24:23;;;;;;;;;;;;;;;-143.57;62.34;51223.47;5059766;28;20109;-73
2022/11/09 10:26:51;;;;;;;;;;;;;;;-143.57;63.04;51223.47;5082236;28;20010;-72
2022/11/09 10:29:33;;;;;;;;;;;;;;;-143.57;62.73;51215.53;5079035;28;19924;-72
2022/11/09 10:32:08;;;;;;;;;;;;;;;-143.57;61.25;51219.50;5081062;28;20072;-72
2022/11/09 10:34:39;;;;;;;;;;;;;;;-143.57;60.42;51215.53;5075236;28;19923;-72
2022/11/09 10:37:12;;;;;;;;;;;;;;;-143.57;59.53;51211.53;5081397;28;19928;-72
2022/11/09 10:39:41;;;;;;;;;;;;;;;-143.57;59.32;51215.53;5058339;28;19928;-72
2022/11/09 10:42:26;;;;;;;;;;;;;;;-143.57;59.11;51211.53;5082272;28;20074;-72
2022/11/09 10:45:14;;;;;;;;;;;;;;;-143.57;57.02;51227.44;5077602;28;19932;-72
2022/11/09 10:48:00;;;;;;;;;;;;;;;-143.57;57.20;51219.50;5082630;28;19954;-72
2022/11/09 10:50:46;;;;;;;;;;;;;;;-143.57;56.54;51187.69;5075763;28;20423;-75
2022/11/09 10:53:32;;;;;;;;;;;;;;;-143.57;57.61;51187.69;5082058;28;19935;-76
2022/11/09 10:56:19;;;;;;;;;;;;;;;-143.57;57.56;51195.63;5079818;28;19962;-75
2022/11/09 10:59:25;;;;;;;;;;;;;;;-143.57;56.95;51183.72;5082524;28;19931;-74
2022/11/09 11:02:25;;;;;;;;;;;;;;;-143.57;57.77;51219.50;5081252;28;19938;-75
2022/11/09 11:05:16;;;;;;;;;;;;;;;-143.57;55.42;51217.50;5081901;28;20068;-74
2022/11/09 11:08:18;;;;;;;;;;;;;;;-143.57;55.55;51191.66;5078425;28;19935;-76
2022/11/09 11:11:16;;;;;;;;;;;;;;;-143.57;55.02;51191.66;5087570;27;19939;-76
2022/11/09 11:14:26;;;;;;;;;;;;;;;-143.57;53.82;51165.81;5084378;28;20483;-75
2022/11/09 11:17:25;;;;;;;;;;;;;;;-143.57;53.33;51195.63;5078784;28;19974;-76
2022/11/09 11:20:25;;;;;;;;;;;;;;;-143.57;51.60;51223.47;5082014;28;19950;-76
2022/11/09 11:23:11;;;;;;;;;;;;;;;-143.57;51.76;51219.50;5061238;28;19935;-76
2022/11/09 11:26:02;;;;;;;;;;;;;;;-143.57;51.52;51191.66;5082226;28;20528;-73
2022/11/09 11:28:49;;;;;;;;;;;;;;;-143.57;51.51;51195.63;5075429;28;19931;-74
2022/11/09 11:31:35;;;;;;;;;;;;;;;-143.57;51.70;51191.66;5076590;28;19976;-73
2022/11/09 11:34:20;;;;;;;;;;;;;;;-143.57;50.46;51211.53;5079981;28;20089;-70
2022/11/09 11:37:36;;;;;;;;;;;;;;;-143.57;49.02;51195.63;5077254;28;19935;-71
2022/11/09 11:40:27;;;;;;;;;;;;;;;-143.57;46.75;51199.63;5077304;28;19939;-72
2022/11/09 11:43:34;;;;;;;;;;;;;;;-143.57;46.52;51223.47;5082493;28;20435;-73
2022/11/09 11:46:37;;;;;;;;;;;;;;;-143.57;44.96;51203.59;5064705;28;19978;-71
2022/11/09 11:49:25;;;;;;;;;;;;;;;-143.57;44.00;51171.78;5079334;28;19934;-72
2022/11/09 11:52:29;;;;;;;;;;;;;;;-143.57;44.72;51171.78;5083402;28;20080;-72
2022/11/09 11:55:18;;;;;;;;;;;;;;;-143.57;43.20;51187.69;5082392;28;19935;-73
2022/11/09 11:58:12;;;;;;;;;;;;;;;-143.57;42.37;51159.84;5085320;28;19935;-71
2022/11/09 12:01:10;;;;;;;;;;;;;;;-143.57;41.91;51191.66;5082132;28;20784;-70
2022/11/09 12:04:12;;;;;;;;;;;;;;;-143.57;42.38;51171.78;5087455;28;19935;-72
2022/11/09 12:06:58;;;;;;;;;;;;;;;-143.57;42.28;51191.66;5080272;28;19930;-73
2022/11/09 12:09:55;;;;;;;;;;;;;;;-143.57;41.25;51165.81;5081253;28;20552;-72
2022/11/09 12:12:43;;;;;;;;;;;;;;;-143.57;39.58;51167.81;5082027;28;19984;-71
2022/11/09 12:15:41;;;;;;;;;;;;;;;-143.57;39.07;51187.69;5081137;28;20680;-72
2022/11/09 12:18:32;;;;;;;;;;;;;;;-143.57;39.17;51175.75;5083624;28;20312;-72
2022/11/09 12:21:21;;;;;;;;;;;;;;;-143.57;38.22;51181.72;5081042;28;19931;-73
2022/11/09 12:24:17;;;;;;;;;;;;;;;-143.57;37.32;51159.84;5088737;28;19934;-73
2022/11/09 12:27:17;;;;;;;;;;;;;;;-143.57;35.72;51159.84;5078035;28;19931;-74
2022/11/09 12:30:22;;;;;;;;;;;;;;;-143.57;33.81;51151.91;5084065;28;19935;-76
2022/11/09 12:33:15;;;;;;;;;;;;;;;-143.57;33.15;51161.84;5087235;27;19935;-76
2022/11/09 12:36:07;;;;;;;;;;;;;;;-143.57;32.46;51159.84;5099268;27;20638;-77
2022/11/09 12:38:53;;;;;;;;;;;;;;;-143.57;30.91;51139.97;5082843;28;20015;-77
2022/11/09 12:41:39;;;;;;;;;;;;;;;-143.57;30.42;51167.81;5083600;28;19951;-78
2022/11/09 12:44:27;;;;;;;;;;;;;;;-143.57;31.19;51138.00;5067086;28;19935;-74